sensor_id;sensor_type;location;lat;lon;timestamp;pressure;altitude;pressure_sealevel;temperature;humidity
27210;BME280;14721;42.668;23.386;2023-03-23T00:01:18;95292.28;;;6.76;100.00
27210;BME280;14721;42.668;23.386;2023-03-23T00:03:51;95294.19;;;6.88;100.00
27210;BME280;14721;42.668;23.386;2023-03-23T00:06:17;95270.25;;;6.60;100.00
27210;BME280;14721;42.668;23.386;2023-03-23T00:08:45;95288.97;;;6.72;100.00
27210;BME280;14721;42.668;23.386;2023-03-23T00:11:20;95278.34;;;6.43;100.00
27210;BME280;14721;42.668;23.386;2023-03-23T00:13:47;95293.72;;;6.38;100.00
27210;BME280;14721;42.668;23.386;2023-03-23T00:16:18;95298.78;;;6.27;100.00
27210;BME280;14721;42.668;23.386;2023-03-23T00:18:48;95298.19;;;6.22;100.00
27210;BME280;14721;42.668;23.386;2023-03-23T00:21:22;95293.38;;;6.28;100.00
27210;BME280;14721;42.668;23.386;2023-03-23T00:24:05;95303.03;;;6.45;100.00
27210;BME280;14721;42.668;23.386;2023-03-23T00:26:36;95299.69;;;6.41;100.00
27210;BME280;14721;42.668;23.386;2023-03-23T00:29:06;95309.63;;;6.38;100.00
27210;BME280;14721;42.668;23.386;2023-03-23T00:31:34;95305.59;;;6.46;100.00
27210;BME280;14721;42.668;23.386;2023-03-23T00:34:02;95304.88;;;6.58;100.00
27210;BME280;14721;42.668;23.386;2023-03-23T00:36:30;95317.41;;;6.70;100.00
27210;BME280;14721;42.668;23.386;2023-03-23T00:38:58;95304.47;;;6.80;100.00
27210;BME280;14721;42.668;23.386;2023-03-23T00:41:25;95305.94;;;6.70;100.00
27210;BME280;14721;42.668;23.386;2023-03-23T00:43:58;95302.69;;;6.35;100.00
27210;BME280;14721;42.668;23.386;2023-03-23T00:46:27;95318.34;;;6.40;100.00
27210;BME280;14721;42.668;23.386;2023-03-23T00:48:54;95324.34;;;6.28;100.00
27210;BME280;14721;42.668;23.386;2023-03-23T00:51:23;95328.34;;;6.50;100.00
27210;BME280;14721;42.668;23.386;2023-03-23T00:53:49;95316.78;;;6.51;100.00
27210;BME280;14721;42.668;23.386;2023-03-23T00:56:16;95315.16;;;6.49;100.00
27210;BME280;14721;42.668;23.386;2023-03-23T00:58:42;95306.19;;;6.51;100.00
27210;BME280;14721;42.668;23.386;2023-03-23T01:01:08;95330.28;;;6.62;100.00
27210;BME280;14721;42.668;23.386;2023-03-23T01:03:34;95327.78;;;6.45;100.00
27210;BME280;14721;42.668;23.386;2023-03-23T01:06:06;95324.31;;;6.59;100.00
27210;BME280;14721;42.668;23.386;2023-03-23T01:08:34;95313.50;;;6.62;100.00
27210;BME280;14721;42.668;23.386;2023-03-23T01:11:06;95329.09;;;6.68;100.00
27210;BME280;14721;42.668;23.386;2023-03-23T01:13:33;95316.47;;;6.71;100.00
27210;BME280;14721;42.668;23.386;2023-03-23T01:15:58;95315.34;;;6.75;100.00
27210;BME280;14721;42.668;23.386;2023-03-23T01:18:26;95317.50;;;6.69;100.00
27210;BME280;14721;42.668;23.386;2023-03-23T01:20:52;95308.84;;;6.51;100.00
27210;BME280;14721;42.668;23.386;2023-03-23T01:23:18;95309.56;;;6.53;100.00
27210;BME280;14721;42.668;23.386;2023-03-23T01:25:44;95304.72;;;6.46;100.00
27210;BME280;14721;42.668;23.386;2023-03-23T01:28:10;95294.72;;;6.35;100.00
27210;BME280;14721;42.668;23.386;2023-03-23T01:30:38;95302.41;;;6.40;100.00
27210;BME280;14721;42.668;23.386;2023-03-23T01:33:03;95297.19;;;6.24;100.00
27210;BME280;14721;42.668;23.386;2023-03-23T01:35:29;95299.13;;;6.21;100.00
27210;BME280;14721;42.668;23.386;2023-03-23T01:37:58;95284.63;;;6.12;100.00
27210;BME280;14721;42.668;23.386;2023-03-23T01:40:27;95295.72;;;6.19;100.00
27210;BME280;14721;42.668;23.386;2023-03-23T01:42:54;95285.00;;;6.20;100.00
27210;BME280;14721;42.668;23.386;2023-03-23T01:48:25;95286.81;;;6.49;100.00
27210;BME280;14721;42.668;23.386;2023-03-23T01:51:08;95284.41;;;6.60;100.00
27210;BME280;14721;42.668;23.386;2023-03-23T01:53:56;95280.03;;;6.30;100.00
27210;BME280;14721;42.668;23.386;2023-03-23T01:56:27;95289.06;;;6.41;100.00
27210;BME280;14721;42.668;23.386;2023-03-23T01:58:56;95283.72;;;6.27;100.00
27210;BME280;14721;42.668;23.386;2023-03-23T02:01:22;95280.38;;;6.24;100.00
27210;BME280;14721;42.668;23.386;2023-03-23T02:03:52;95276.94;;;6.37;100.00
27210;BME280;14721;42.668;23.386;2023-03-23T02:06:18;95276.56;;;6.43;100.00
27210;BME280;14721;42.668;23.386;2023-03-23T02:08:44;95282.16;;;6.39;100.00
27210;BME280;14721;42.668;23.386;2023-03-23T02:11:17;95286.78;;;6.35;100.00
27210;BME280;14721;42.668;23.386;2023-03-23T02:13:45;95287.38;;;6.40;100.00
27210;BME280;14721;42.668;23.386;2023-03-23T02:16:21;95295.31;;;6.40;100.00
27210;BME280;14721;42.668;23.386;2023-03-23T02:30:11;95281.97;;;5.97;100.00
27210;BME280;14721;42.668;23.386;2023-03-23T02:32:47;95304.56;;;5.88;100.00
27210;BME280;14721;42.668;23.386;2023-03-23T02:35:34;95301.28;;;5.67;100.00
27210;BME280;14721;42.668;23.386;2023-03-23T02:38:10;95305.47;;;5.56;100.00
27210;BME280;14721;42.668;23.386;2023-03-23T02:40:43;95302.53;;;5.45;100.00
27210;BME280;14721;42.668;23.386;2023-03-23T02:43:14;95294.69;;;5.28;100.00
27210;BME280;14721;42.668;23.386;2023-03-23T02:45:42;95301.47;;;5.16;100.00
27210;BME280;14721;42.668;23.386;2023-03-23T02:48:13;95315.41;;;5.20;100.00
27210;BME280;14721;42.668;23.386;2023-03-23T02:50:44;95319.69;;;5.22;100.00
27210;BME280;14721;42.668;23.386;2023-03-23T02:53:14;95323.28;;;5.21;100.00
27210;BME280;14721;42.668;23.386;2023-03-23T02:55:43;95327.53;;;5.24;100.00
27210;BME280;14721;42.668;23.386;2023-03-23T02:58:10;95315.41;;;5.20;100.00
27210;BME280;14721;42.668;23.386;2023-03-23T03:00:37;95328.41;;;5.24;100.00
27210;BME280;14721;42.668;23.386;2023-03-23T03:03:15;95327.59;;;5.07;100.00
27210;BME280;14721;42.668;23.386;2023-03-23T03:05:54;95340.69;;;5.10;100.00
27210;BME280;14721;42.668;23.386;2023-03-23T03:08:52;95346.69;;;5.13;100.00
27210;BME280;14721;42.668;23.386;2023-03-23T03:11:23;95346.56;;;4.99;100.00
27210;BME280;14721;42.668;23.386;2023-03-23T03:14:15;95359.16;;;4.94;100.00
27210;BME280;14721;42.668;23.386;2023-03-23T03:16:59;95360.03;;;4.95;100.00
27210;BME280;14721;42.668;23.386;2023-03-23T03:19:35;95354.81;;;4.93;100.00
27210;BME280;14721;42.668;23.386;2023-03-23T03:22:04;95353.88;;;4.94;100.00
27210;BME280;14721;42.668;23.386;2023-03-23T03:24:32;95354.25;;;5.04;100.00
27210;BME280;14721;42.668;23.386;2023-03-23T03:27:04;95348.97;;;5.04;100.00
27210;BME280;14721;42.668;23.386;2023-03-23T03:29:40;95356.09;;;5.19;100.00
27210;BME280;14721;42.668;23.386;2023-03-23T03:32:11;95348.56;;;5.27;100.00
27210;BME280;14721;42.668;23.386;2023-03-23T03:34:39;95362.59;;;5.29;100.00
27210;BME280;14721;42.668;23.386;2023-03-23T03:37:06;95358.34;;;5.26;100.00
27210;BME280;14721;42.668;23.386;2023-03-23T03:39:35;95361.75;;;5.28;100.00
27210;BME280;14721;42.668;23.386;2023-03-23T03:42:04;95365.56;;;5.40;100.00
27210;BME280;14721;42.668;23.386;2023-03-23T03:44:32;95361.31;;;5.36;100.00
27210;BME280;14721;42.668;23.386;2023-03-23T03:46:58;95351.94;;;5.30;100.00
27210;BME280;14721;42.668;23.386;2023-03-23T03:49:24;95347.56;;;5.29;100.00
27210;BME280;14721;42.668;23.386;2023-03-23T03:51:51;95357.38;;;5.27;100.00
27210;BME280;14721;42.668;23.386;2023-03-23T03:54:17;95350.56;;;5.23;100.00
27210;BME280;14721;42.668;23.386;2023-03-23T03:56:43;95349.69;;;5.23;100.00
27210;BME280;14721;42.668;23.386;2023-03-23T03:59:10;95355.59;;;5.28;100.00
27210;BME280;14721;42.668;23.386;2023-03-23T04:01:38;95351.06;;;5.30;100.00
27210;BME280;14721;42.668;23.386;2023-03-23T04:04:05;95352.97;;;5.28;100.00
27210;BME280;14721;42.668;23.386;2023-03-23T04:06:41;95346.47;;;5.33;100.00
27210;BME280;14721;42.668;23.386;2023-03-23T04:09:06;95340.66;;;5.42;100.00
27210;BME280;14721;42.668;23.386;2023-03-23T04:11:33;95338.97;;;5.57;100.00
27210;BME280;14721;42.668;23.386;2023-03-23T04:13:59;95329.50;;;5.68;100.00
27210;BME280;14721;42.668;23.386;2023-03-23T04:16:25;95337.56;;;5.67;100.00
27210;BME280;14721;42.668;23.386;2023-03-23T04:18:51;95336.16;;;5.60;100.00
27210;BME280;14721;42.668;23.386;2023-03-23T04:21:21;95336.66;;;5.51;100.00
27210;BME280;14721;42.668;23.386;2023-03-23T04:23:47;95341.94;;;5.35;100.00
27210;BME280;14721;42.668;23.386;2023-03-23T04:26:13;95351.09;;;5.45;100.00
27210;BME280;14721;42.668;23.386;2023-03-23T04:28:39;95330.25;;;5.39;100.00
27210;BME280;14721;42.668;23.386;2023-03-23T04:31:06;95340.09;;;5.53;100.00
27210;BME280;14721;42.668;23.386;2023-03-23T04:36:53;95347.66;;;5.76;100.00
27210;BME280;14721;42.668;23.386;2023-03-23T04:39:19;95343.53;;;5.70;100.00
27210;BME280;14721;42.668;23.386;2023-03-23T04:41:45;95330.94;;;5.58;100.00
27210;BME280;14721;42.668;23.386;2023-03-23T04:44:27;95357.03;;;5.66;100.00
27210;BME280;14721;42.668;23.386;2023-03-23T04:50:57;95351.78;;;5.82;100.00
27210;BME280;14721;42.668;23.386;2023-03-23T04:53:29;95362.22;;;5.85;100.00
27210;BME280;14721;42.668;23.386;2023-03-23T04:55:56;95357.88;;;5.84;100.00
27210;BME280;14721;42.668;23.386;2023-03-23T04:58:22;95360.66;;;5.80;100.00
27210;BME280;14721;42.668;23.386;2023-03-23T05:00:51;95372.50;;;5.73;100.00
27210;BME280;14721;42.668;23.386;2023-03-23T05:03:18;95368.06;;;5.74;100.00
27210;BME280;14721;42.668;23.386;2023-03-23T05:05:44;95376.56;;;5.80;100.00
27210;BME280;14721;42.668;23.386;2023-03-23T05:08:19;95373.00;;;5.82;100.00
27210;BME280;14721;42.668;23.386;2023-03-23T05:10:58;95360.44;;;5.85;100.00
27210;BME280;14721;42.668;23.386;2023-03-23T05:13:24;95373.19;;;5.94;100.00
27210;BME280;14721;42.668;23.386;2023-03-23T05:15:50;95379.41;;;6.09;100.00
27210;BME280;14721;42.668;23.386;2023-03-23T05:18:18;95375.47;;;6.16;100.00
27210;BME280;14721;42.668;23.386;2023-03-23T05:20:46;95380.25;;;6.25;100.00
27210;BME280;14721;42.668;23.386;2023-03-23T05:23:12;95384.03;;;6.21;100.00
27210;BME280;14721;42.668;23.386;2023-03-23T05:25:38;95383.59;;;6.28;100.00
27210;BME280;14721;42.668;23.386;2023-03-23T05:28:08;95389.38;;;6.50;100.00
27210;BME280;14721;42.668;23.386;2023-03-23T05:30:34;95387.84;;;6.62;100.00
27210;BME280;14721;42.668;23.386;2023-03-23T05:33:01;95388.84;;;6.59;100.00
27210;BME280;14721;42.668;23.386;2023-03-23T05:35:27;95380.06;;;6.43;100.00
27210;BME280;14721;42.668;23.386;2023-03-23T05:37:54;95391.22;;;6.50;100.00
27210;BME280;14721;42.668;23.386;2023-03-23T05:40:21;95392.19;;;6.63;100.00
27210;BME280;14721;42.668;23.386;2023-03-23T05:42:49;95410.25;;;6.72;100.00
27210;BME280;14721;42.668;23.386;2023-03-23T05:45:15;95405.91;;;6.71;100.00
27210;BME280;14721;42.668;23.386;2023-03-23T05:47:41;95408.94;;;6.79;100.00
27210;BME280;14721;42.668;23.386;2023-03-23T05:50:09;95398.47;;;6.91;100.00
27210;BME280;14721;42.668;23.386;2023-03-23T05:52:36;95397.84;;;7.02;100.00
27210;BME280;14721;42.668;23.386;2023-03-23T05:55:03;95406.78;;;7.15;100.00
27210;BME280;14721;42.668;23.386;2023-03-23T05:57:30;95407.97;;;7.25;100.00
27210;BME280;14721;42.668;23.386;2023-03-23T05:59:56;95413.41;;;7.51;100.00
27210;BME280;14721;42.668;23.386;2023-03-23T06:02:24;95409.81;;;7.66;100.00
27210;BME280;14721;42.668;23.386;2023-03-23T06:04:53;95408.28;;;7.77;100.00
27210;BME280;14721;42.668;23.386;2023-03-23T06:07:24;95409.97;;;7.92;100.00
27210;BME280;14721;42.668;23.386;2023-03-23T06:09:51;95412.94;;;8.01;100.00
27210;BME280;14721;42.668;23.386;2023-03-23T06:12:16;95412.16;;;8.13;100.00
27210;BME280;14721;42.668;23.386;2023-03-23T06:14:47;95419.31;;;8.27;100.00
27210;BME280;14721;42.668;23.386;2023-03-23T06:17:16;95407.78;;;8.26;100.00
27210;BME280;14721;42.668;23.386;2023-03-23T06:19:43;95418.31;;;8.42;100.00
27210;BME280;14721;42.668;23.386;2023-03-23T06:22:09;95424.47;;;8.56;99.84
27210;BME280;14721;42.668;23.386;2023-03-23T06:24:35;95416.72;;;8.66;99.42
27210;BME280;14721;42.668;23.386;2023-03-23T06:27:01;95415.34;;;8.99;98.20
27210;BME280;14721;42.668;23.386;2023-03-23T06:29:27;95412.78;;;9.49;96.66
27210;BME280;14721;42.668;23.386;2023-03-23T06:31:59;95405.25;;;9.56;95.33
27210;BME280;14721;42.668;23.386;2023-03-23T06:34:25;95418.75;;;10.28;92.84
27210;BME280;14721;42.668;23.386;2023-03-23T06:36:51;95416.25;;;10.86;90.96
27210;BME280;14721;42.668;23.386;2023-03-23T06:39:17;95412.38;;;11.14;87.70
27210;BME280;14721;42.668;23.386;2023-03-23T06:41:43;95425.16;;;11.21;85.04
27210;BME280;14721;42.668;23.386;2023-03-23T06:44:08;95416.25;;;11.44;84.23
27210;BME280;14721;42.668;23.386;2023-03-23T06:46:38;95433.69;;;11.96;82.99
27210;BME280;14721;42.668;23.386;2023-03-23T06:49:04;95421.91;;;12.31;79.77
27210;BME280;14721;42.668;23.386;2023-03-23T06:51:30;95424.94;;;12.71;79.18
27210;BME280;14721;42.668;23.386;2023-03-23T06:53:56;95425.63;;;12.95;76.93
27210;BME280;14721;42.668;23.386;2023-03-23T06:56:23;95429.75;;;12.99;76.93
27210;BME280;14721;42.668;23.386;2023-03-23T06:58:48;95434.41;;;13.08;74.65
27210;BME280;14721;42.668;23.386;2023-03-23T07:01:14;95430.06;;;13.59;73.84
27210;BME280;14721;42.668;23.386;2023-03-23T07:03:41;95433.50;;;13.82;71.99
27210;BME280;14721;42.668;23.386;2023-03-23T07:06:09;95428.19;;;13.91;69.79
27210;BME280;14721;42.668;23.386;2023-03-23T07:08:36;95428.09;;;14.02;69.69
27210;BME280;14721;42.668;23.386;2023-03-23T07:11:02;95430.94;;;14.01;70.47
27210;BME280;14721;42.668;23.386;2023-03-23T07:13:28;95426.03;;;14.96;67.98
27210;BME280;14721;42.668;23.386;2023-03-23T07:15:54;95424.03;;;15.47;65.70
27210;BME280;14721;42.668;23.386;2023-03-23T07:18:21;95424.19;;;15.74;62.12
27210;BME280;14721;42.668;23.386;2023-03-23T07:20:49;95432.75;;;15.30;63.88
27210;BME280;14721;42.668;23.386;2023-03-23T07:23:15;95417.56;;;15.00;63.60
27210;BME280;14721;42.668;23.386;2023-03-23T07:25:42;95426.31;;;15.71;62.85
27210;BME280;14721;42.668;23.386;2023-03-23T07:28:08;95435.66;;;15.86;60.80
27210;BME280;14721;42.668;23.386;2023-03-23T07:30:34;95425.44;;;15.51;61.96
27210;BME280;14721;42.668;23.386;2023-03-23T07:33:04;95424.81;;;15.29;62.62
27210;BME280;14721;42.668;23.386;2023-03-23T07:35:30;95428.00;;;15.72;61.65
27210;BME280;14721;42.668;23.386;2023-03-23T07:37:57;95423.88;;;15.87;61.59
27210;BME280;14721;42.668;23.386;2023-03-23T07:40:23;95425.13;;;16.02;61.10
27210;BME280;14721;42.668;23.386;2023-03-23T07:42:53;95444.16;;;15.72;60.63
27210;BME280;14721;42.668;23.386;2023-03-23T07:45:19;95437.19;;;16.07;61.37
27210;BME280;14721;42.668;23.386;2023-03-23T07:47:45;95432.75;;;16.44;59.69
27210;BME280;14721;42.668;23.386;2023-03-23T07:50:10;95436.88;;;16.85;58.55
27210;BME280;14721;42.668;23.386;2023-03-23T07:52:38;95431.66;;;17.55;56.74
27210;BME280;14721;42.668;23.386;2023-03-23T07:55:05;95436.81;;;18.01;54.30
27210;BME280;14721;42.668;23.386;2023-03-23T07:57:31;95414.94;;;18.12;54.21
27210;BME280;14721;42.668;23.386;2023-03-23T07:59:59;95431.53;;;18.35;54.58
27210;BME280;14721;42.668;23.386;2023-03-23T08:02:25;95437.69;;;17.84;53.29
27210;BME280;14721;42.668;23.386;2023-03-23T08:04:51;95439.06;;;17.53;53.41
27210;BME280;14721;42.668;23.386;2023-03-23T08:07:19;95432.59;;;17.81;53.66
27210;BME280;14721;42.668;23.386;2023-03-23T08:09:46;95442.16;;;17.93;54.09
27210;BME280;14721;42.668;23.386;2023-03-23T08:12:13;95437.31;;;17.62;53.87
27210;BME280;14721;42.668;23.386;2023-03-23T08:14:39;95443.88;;;17.32;54.26
27210;BME280;14721;42.668;23.386;2023-03-23T08:17:07;95446.03;;;17.56;54.50
27210;BME280;14721;42.668;23.386;2023-03-23T08:19:34;95444.16;;;17.91;53.57
27210;BME280;14721;42.668;23.386;2023-03-23T08:22:03;95443.47;;;18.07;52.61
27210;BME280;14721;42.668;23.386;2023-03-23T08:24:33;95446.75;;;18.53;52.34
27210;BME280;14721;42.668;23.386;2023-03-23T08:27:00;95420.78;;;19.02;51.36
27210;BME280;14721;42.668;23.386;2023-03-23T08:29:31;95430.69;;;19.19;50.30
27210;BME280;14721;42.668;23.386;2023-03-23T08:31:58;95425.94;;;19.13;49.70
27210;BME280;14721;42.668;23.386;2023-03-23T08:34:24;95434.19;;;19.37;48.80
27210;BME280;14721;42.668;23.386;2023-03-23T08:36:51;95426.28;;;19.18;49.41
27210;BME280;14721;42.668;23.386;2023-03-23T08:39:17;95408.38;;;18.92;47.71
27210;BME280;14721;42.668;23.386;2023-03-23T08:41:44;95426.78;;;18.80;49.09
27210;BME280;14721;42.668;23.386;2023-03-23T08:44:10;95424.88;;;18.73;48.63
27210;BME280;14721;42.668;23.386;2023-03-23T08:46:36;95426.69;;;18.38;50.43
27210;BME280;14721;42.668;23.386;2023-03-23T08:49:01;95424.25;;;18.35;49.57
27210;BME280;14721;42.668;23.386;2023-03-23T08:51:27;95423.72;;;17.89;50.55
27210;BME280;14721;42.668;23.386;2023-03-23T08:53:53;95419.06;;;17.99;50.19
27210;BME280;14721;42.668;23.386;2023-03-23T08:56:19;95415.22;;;18.27;49.03
27210;BME280;14721;42.668;23.386;2023-03-23T08:58:45;95416.34;;;17.99;46.40
27210;BME280;14721;42.668;23.386;2023-03-23T09:01:11;95426.78;;;17.14;47.79
27210;BME280;14721;42.668;23.386;2023-03-23T09:03:36;95425.91;;;16.50;48.17
27210;BME280;14721;42.668;23.386;2023-03-23T09:06:04;95432.72;;;16.35;48.55
27210;BME280;14721;42.668;23.386;2023-03-23T09:08:30;95429.75;;;16.38;47.79
27210;BME280;14721;42.668;23.386;2023-03-23T09:11:00;95428.78;;;16.20;48.44
27210;BME280;14721;42.668;23.386;2023-03-23T09:13:26;95425.84;;;15.94;48.51
27210;BME280;14721;42.668;23.386;2023-03-23T09:15:52;95425.88;;;15.56;50.16
27210;BME280;14721;42.668;23.386;2023-03-23T09:18:18;95427.56;;;15.57;51.30
27210;BME280;14721;42.668;23.386;2023-03-23T09:20:44;95431.91;;;15.20;50.42
27210;BME280;14721;42.668;23.386;2023-03-23T09:23:09;95417.28;;;14.64;50.55
27210;BME280;14721;42.668;23.386;2023-03-23T09:25:35;95431.78;;;14.72;51.46
27210;BME280;14721;42.668;23.386;2023-03-23T09:28:00;95427.31;;;14.92;52.70
27210;BME280;14721;42.668;23.386;2023-03-23T09:30:31;95422.47;;;14.86;52.35
27210;BME280;14721;42.668;23.386;2023-03-23T09:32:59;95423.44;;;14.75;52.55
27210;BME280;14721;42.668;23.386;2023-03-23T09:35:27;95405.03;;;14.41;51.65
27210;BME280;14721;42.668;23.386;2023-03-23T09:37:53;95421.97;;;14.32;51.93
27210;BME280;14721;42.668;23.386;2023-03-23T09:40:24;95414.63;;;14.13;52.70
27210;BME280;14721;42.668;23.386;2023-03-23T09:46:08;95413.38;;;14.77;53.04
27210;BME280;14721;42.668;23.386;2023-03-23T09:48:54;95408.31;;;14.84;53.17
27210;BME280;14721;42.668;23.386;2023-03-23T09:54:21;95393.53;;;15.28;52.21
27210;BME280;14721;42.668;23.386;2023-03-23T09:56:49;95405.88;;;15.49;51.10
27210;BME280;14721;42.668;23.386;2023-03-23T09:59:21;95385.03;;;15.42;51.10
27210;BME280;14721;42.668;23.386;2023-03-23T10:01:50;95386.88;;;15.22;50.89
27210;BME280;14721;42.668;23.386;2023-03-23T10:04:37;95399.41;;;14.93;51.97
27210;BME280;14721;42.668;23.386;2023-03-23T10:07:13;95404.88;;;14.72;51.09
27210;BME280;14721;42.668;23.386;2023-03-23T10:09:40;95402.59;;;14.77;51.47
27210;BME280;14721;42.668;23.386;2023-03-23T10:13:01;95401.09;;;14.45;52.10
27210;BME280;14721;42.668;23.386;2023-03-23T10:18:01;95401.38;;;14.81;51.47
27210;BME280;14721;42.668;23.386;2023-03-23T10:29:26;95376.97;;;15.42;49.83
27210;BME280;14721;42.668;23.386;2023-03-23T10:32:11;95379.31;;;15.06;50.88
27210;BME280;14721;42.668;23.386;2023-03-23T10:34:49;95393.91;;;14.55;51.00
27210;BME280;14721;42.668;23.386;2023-03-23T10:37:25;95380.47;;;14.25;52.46
27210;BME280;14721;42.668;23.386;2023-03-23T10:40:00;95369.31;;;14.29;52.54
27210;BME280;14721;42.668;23.386;2023-03-23T10:42:31;95387.38;;;14.48;52.67
27210;BME280;14721;42.668;23.386;2023-03-23T10:45:16;95384.53;;;14.49;52.10
27210;BME280;14721;42.668;23.386;2023-03-23T10:47:46;95385.00;;;14.54;51.99
27210;BME280;14721;42.668;23.386;2023-03-23T10:50:16;95360.53;;;14.57;51.18
27210;BME280;14721;42.668;23.386;2023-03-23T10:52:43;95384.50;;;14.79;51.39
27210;BME280;14721;42.668;23.386;2023-03-23T10:55:21;95378.00;;;14.82;50.79
27210;BME280;14721;42.668;23.386;2023-03-23T10:58:06;95372.53;;;15.12;50.53
27210;BME280;14721;42.668;23.386;2023-03-23T11:00:32;95362.34;;;15.16;50.37
27210;BME280;14721;42.668;23.386;2023-03-23T11:03:02;95375.06;;;15.13;50.41
27210;BME280;14721;42.668;23.386;2023-03-23T11:05:41;95378.19;;;15.09;50.99
27210;BME280;14721;42.668;23.386;2023-03-23T11:08:16;95377.75;;;15.13;50.59
27210;BME280;14721;42.668;23.386;2023-03-23T11:10:54;95354.81;;;15.09;49.94
27210;BME280;14721;42.668;23.386;2023-03-23T11:13:23;95375.34;;;15.10;49.71
27210;BME280;14721;42.668;23.386;2023-03-23T11:15:53;95359.50;;;15.17;49.68
27210;BME280;14721;42.668;23.386;2023-03-23T11:18:25;95352.69;;;15.23;51.33
27210;BME280;14721;42.668;23.386;2023-03-23T11:20:57;95351.56;;;15.35;50.00
27210;BME280;14721;42.668;23.386;2023-03-23T11:23:33;95349.44;;;15.29;49.93
27210;BME280;14721;42.668;23.386;2023-03-23T11:26:17;95347.63;;;15.10;49.99
27210;BME280;14721;42.668;23.386;2023-03-23T11:29:13;95344.25;;;14.68;50.94
27210;BME280;14721;42.668;23.386;2023-03-23T11:31:47;95342.06;;;14.83;52.73
27210;BME280;14721;42.668;23.386;2023-03-23T11:34:23;95335.00;;;15.10;52.16
27210;BME280;14721;42.668;23.386;2023-03-23T11:36:52;95332.84;;;15.04;51.07
27210;BME280;14721;42.668;23.386;2023-03-23T11:39:30;95334.16;;;15.10;50.48
27210;BME280;14721;42.668;23.386;2023-03-23T11:42:01;95319.69;;;15.01;50.39
27210;BME280;14721;42.668;23.386;2023-03-23T11:44:42;95323.94;;;15.13;50.68
27210;BME280;14721;42.668;23.386;2023-03-23T11:47:34;95330.63;;;15.19;51.14
27210;BME280;14721;42.668;23.386;2023-03-23T11:50:26;95321.69;;;15.19;50.66
27210;BME280;14721;42.668;23.386;2023-03-23T11:53:12;95325.22;;;15.29;50.44
27210;BME280;14721;42.668;23.386;2023-03-23T11:58:15;95320.28;;;15.34;51.58
27210;BME280;14721;42.668;23.386;2023-03-23T12:00:55;95318.03;;;15.39;51.83
27210;BME280;14721;42.668;23.386;2023-03-23T12:28:38;95302.84;;;15.28;49.66
27210;BME280;14721;42.668;23.386;2023-03-23T12:34:17;95290.50;;;15.35;50.05
27210;BME280;14721;42.668;23.386;2023-03-23T12:44:41;95293.22;;;15.45;50.68
27210;BME280;14721;42.668;23.386;2023-03-23T12:49:48;95274.06;;;15.48;49.52
27210;BME280;14721;42.668;23.386;2023-03-23T12:58:17;95282.72;;;15.61;50.24
27210;BME280;14721;42.668;23.386;2023-03-23T13:00:55;95282.13;;;15.67;49.76
27210;BME280;14721;42.668;23.386;2023-03-23T13:03:27;95289.63;;;15.73;49.15
27210;BME280;14721;42.668;23.386;2023-03-23T13:06:12;95284.84;;;15.57;49.84
27210;BME280;14721;42.668;23.386;2023-03-23T13:08:48;95282.88;;;15.59;49.86
27210;BME280;14721;42.668;23.386;2023-03-23T13:11:20;95251.34;;;15.69;49.97
27210;BME280;14721;42.668;23.386;2023-03-23T13:16:44;95256.66;;;15.98;49.80
27210;BME280;14721;42.668;23.386;2023-03-23T13:19:29;95260.19;;;15.98;49.45
27210;BME280;14721;42.668;23.386;2023-03-23T13:22:02;95266.91;;;15.85;49.50
27210;BME280;14721;42.668;23.386;2023-03-23T13:24:35;95257.81;;;15.86;49.44
27210;BME280;14721;42.668;23.386;2023-03-23T13:27:04;95264.31;;;15.93;49.24
27210;BME280;14721;42.668;23.386;2023-03-23T13:29:32;95254.69;;;15.90;49.30
27210;BME280;14721;42.668;23.386;2023-03-23T13:32:12;95254.56;;;15.82;49.26
27210;BME280;14721;42.668;23.386;2023-03-23T13:34:42;95241.00;;;15.74;49.31
27210;BME280;14721;42.668;23.386;2023-03-23T13:37:21;95253.53;;;15.93;48.76
27210;BME280;14721;42.668;23.386;2023-03-23T13:39:51;95251.81;;;16.01;48.82
27210;BME280;14721;42.668;23.386;2023-03-23T13:55:48;95237.00;;;15.78;49.12
27210;BME280;14721;42.668;23.386;2023-03-23T13:58:44;95243.13;;;15.71;49.24
27210;BME280;14721;42.668;23.386;2023-03-23T14:01:18;95249.53;;;15.60;49.97
27210;BME280;14721;42.668;23.386;2023-03-23T14:03:48;95219.63;;;15.54;49.85
27210;BME280;14721;42.668;23.386;2023-03-23T14:06:19;95237.31;;;15.66;49.81
27210;BME280;14721;42.668;23.386;2023-03-23T14:08:48;95223.69;;;15.77;49.52
27210;BME280;14721;42.668;23.386;2023-03-23T14:16:21;95210.09;;;15.69;49.80
27210;BME280;14721;42.668;23.386;2023-03-23T14:18:58;95227.38;;;15.76;49.93
27210;BME280;14721;42.668;23.386;2023-03-23T14:23:53;95203.53;;;15.81;49.52
27210;BME280;14721;42.668;23.386;2023-03-23T14:26:21;95222.63;;;15.97;49.01
27210;BME280;14721;42.668;23.386;2023-03-23T14:28:50;95215.22;;;15.99;49.00
27210;BME280;14721;42.668;23.386;2023-03-23T14:31:22;95220.38;;;15.92;50.04
27210;BME280;14721;42.668;23.386;2023-03-23T14:33:49;95211.59;;;15.81;49.86
27210;BME280;14721;42.668;23.386;2023-03-23T14:36:27;95212.19;;;15.75;49.75
27210;BME280;14721;42.668;23.386;2023-03-23T14:41:42;95213.94;;;15.66;50.91
27210;BME280;14721;42.668;23.386;2023-03-23T14:44:14;95204.19;;;15.56;50.94
27210;BME280;14721;42.668;23.386;2023-03-23T14:46:42;95218.16;;;15.69;50.17
27210;BME280;14721;42.668;23.386;2023-03-23T14:49:15;95226.84;;;15.63;50.52
27210;BME280;14721;42.668;23.386;2023-03-23T14:51:53;95217.94;;;15.53;50.98
27210;BME280;14721;42.668;23.386;2023-03-23T14:54:27;95196.97;;;15.56;51.31
27210;BME280;14721;42.668;23.386;2023-03-23T14:56:53;95204.41;;;15.72;51.38
27210;BME280;14721;42.668;23.386;2023-03-23T14:59:19;95211.81;;;15.70;51.19